Time;durP1;ratioP1;P1;durP2;ratioP2;P2;SDS_P1;SDS_P2;PMS_P1;PMS_P2;Temp;Humidity;BMP_temperature;BMP_pressure;BME280_temperature;BME280_humidity;BME280_pressure;Samples;Min_cycle;Max_cycle;Signal;HPM_P1;HPM_P2
2021/10/19 00:00:05;;;;;;;;;13.25;11.50;;;;;21.38;50.92;101473.41;5017820;28;45771;-55
2021/10/19 00:02:31;;;;;;;;;12.75;10.75;;;;;21.38;51.27;101478.69;5017927;28;45408;-56
2021/10/19 00:04:57;;;;;;;;;11.00;10.25;;;;;21.38;50.95;101476.06;5018166;28;45602;-56
2021/10/19 00:07:22;;;;;;;;;11.00;11.00;;;;;21.37;50.89;101480.50;5017707;28;45418;-56
2021/10/19 00:09:47;;;;;;;;;17.50;14.25;;;;;21.36;51.09;101488.47;5017558;28;45340;-56
2021/10/19 00:12:13;;;;;;;;;11.00;11.00;;;;;21.35;50.84;101473.56;5017688;28;45289;-54
2021/10/19 00:14:38;;;;;;;;;12.00;12.00;;;;;21.36;50.90;101478.78;5017789;28;45266;-54
2021/10/19 00:17:03;;;;;;;;;10.25;9.75;;;;;21.37;51.12;101476.97;5017100;28;46615;-53
2021/10/19 00:19:29;;;;;;;;;10.00;10.00;;;;;21.35;51.29;101463.88;5017811;28;45400;-55
2021/10/19 00:21:54;;;;;;;;;11.25;10.50;;;;;21.36;51.22;101462.97;5017630;28;45305;-56
2021/10/19 00:24:19;;;;;;;;;9.75;9.75;;;;;21.35;51.40;101470.91;5033118;28;45366;-55
2021/10/19 00:26:45;;;;;;;;;12.50;10.00;;;;;21.36;51.02;101467.38;5017123;28;46499;-56
2021/10/19 00:29:10;;;;;;;;;12.00;10.25;;;;;21.35;51.40;101470.91;5017351;28;45468;-56
2021/10/19 00:31:35;;;;;;;;;11.75;10.00;;;;;21.35;51.25;101476.19;5017473;28;45429;-56
2021/10/19 00:34:01;;;;;;;;;13.00;11.25;;;;;21.35;51.22;101463.00;5017856;28;45292;-55
2021/10/19 00:36:26;;;;;;;;;10.25;8.75;;;;;21.34;51.14;101470.09;5017214;28;45328;-56
2021/10/19 00:38:51;;;;;;;;;11.50;11.50;;;;;21.35;51.42;101476.19;5017245;28;45268;-54
2021/10/19 00:41:17;;;;;;;;;12.50;11.75;;;;;21.34;51.41;101469.22;5016930;28;45319;-55
2021/10/19 00:43:43;;;;;;;;;9.75;9.75;;;;;21.33;51.19;101470.16;5017494;28;45300;-56
2021/10/19 00:46:14;;;;;;;;;10.00;9.00;;;;;21.34;51.03;101463.94;5017054;28;46552;-55
2021/10/19 00:48:40;;;;;;;;;11.25;11.25;;;;;21.33;51.18;101463.09;5016827;28;45814;-56
2021/10/19 00:51:07;;;;;;;;;9.25;9.25;;;;;21.33;50.91;101468.38;5017101;28;45436;-56
2021/10/19 00:53:33;;;;;;;;;13.00;12.00;;;;;21.33;51.05;101468.38;5017337;28;45575;-54
2021/10/19 00:55:58;;;;;;;;;14.50;12.00;;;;;21.33;50.92;101468.38;5017061;28;46524;-55
2021/10/19 00:58:24;;;;;;;;;10.50;10.50;;;;;21.33;51.31;101475.44;5016717;28;45349;-56
2021/10/19 01:00:49;;;;;;;;;9.75;9.50;;;;;21.33;51.03;101480.72;5017051;28;45439;-56
2021/10/19 01:03:14;;;;;;;;;10.00;10.00;;;;;21.32;50.89;101487.75;5016887;28;45471;-55
2021/10/19 01:05:40;;;;;;;;;11.50;10.50;;;;;21.32;51.09;101493.03;5016672;28;46602;-55
2021/10/19 01:08:06;;;;;;;;;12.00;11.00;;;;;21.30;51.26;101489.59;5016886;28;45568;-55
2021/10/19 01:10:32;;;;;;;;;9.25;9.25;;;;;21.31;50.99;101486.91;5017107;28;45456;-55
2021/10/19 01:12:57;;;;;;;;;11.00;10.25;;;;;21.31;51.30;101492.19;5016959;28;45357;-55
2021/10/19 01:15:23;;;;;;;;;8.75;8.75;;;;;21.30;51.58;101490.47;5016563;28;45453;-55
2021/10/19 01:17:51;;;;;;;;;13.50;12.25;;;;;21.31;51.12;101499.22;5016446;28;45365;-54
2021/10/19 01:20:31;;;;;;;;;13.75;11.00;;;;;21.30;51.24;101498.38;5016616;28;45330;-55
2021/10/19 01:22:58;;;;;;;;;13.00;11.25;;;;;21.31;51.10;101502.72;5016677;28;45340;-55
2021/10/19 01:25:27;;;;;;;;;9.00;9.00;;;;;21.31;51.57;101507.13;5016456;28;46673;-55
2021/10/19 01:27:54;;;;;;;;;10.75;9.00;;;;;21.29;51.52;101499.31;5016445;28;45731;-55
2021/10/19 01:30:20;;;;;;;;;11.25;10.75;;;;;21.30;51.21;101495.75;5016588;28;45883;-55
2021/10/19 01:32:46;;;;;;;;;13.25;11.25;;;;;21.30;51.37;101484.34;5016949;28;45556;-54
2021/10/19 01:35:13;;;;;;;;;11.00;11.00;;;;;21.29;51.39;101490.53;5016315;28;45669;-55
2021/10/19 01:37:40;;;;;;;;;12.75;9.25;;;;;21.30;51.59;101486.97;5016307;28;45688;-54
2021/10/19 01:40:12;;;;;;;;;10.25;10.25;;;;;21.30;51.27;101489.59;5016792;28;45426;-55
2021/10/19 01:42:38;;;;;;;;;11.50;11.50;;;;;21.28;51.11;101487.06;5016484;28;45447;-55
2021/10/19 01:45:10;;;;;;;;;11.50;9.25;;;;;21.29;51.33;101482.63;5016390;28;45430;-54
2021/10/19 01:47:36;;;;;;;;;9.50;8.75;;;;;21.28;51.11;101484.41;5016314;28;45357;-54
2021/10/19 01:50:01;;;;;;;;;9.75;9.75;;;;;21.28;51.67;101486.19;4998734;28;45496;-55
2021/10/19 01:52:27;;;;;;;;;8.75;8.75;;;;;21.28;51.58;101481.78;5016437;28;45662;-55
2021/10/19 01:54:52;;;;;;;;;13.00;12.00;;;;;21.28;51.52;101483.53;5018371;28;45650;-55
2021/10/19 01:57:17;;;;;;;;;8.25;7.50;;;;;21.28;51.69;101481.78;5019657;28;45350;-55
2021/10/19 01:59:43;;;;;;;;;8.00;8.00;;;;;21.28;51.24;101484.41;5019847;28;45325;-55
2021/10/19 02:02:08;;;;;;;;;10.25;9.00;;;;;21.27;51.42;101480.06;5019906;28;45427;-55
2021/10/19 02:04:33;;;;;;;;;9.75;9.25;;;;;21.25;51.13;101475.81;5019698;28;45336;-55
2021/10/19 02:06:59;;;;;;;;;12.25;10.00;;;;;21.27;51.41;101485.34;5019555;28;45392;-55
2021/10/19 02:09:24;;;;;;;;;8.00;8.00;;;;;21.25;51.36;101476.66;5019742;28;45406;-56
2021/10/19 02:11:49;;;;;;;;;9.50;9.50;;;;;21.27;51.58;101479.22;5019759;28;45297;-55
2021/10/19 02:14:15;;;;;;;;;8.00;8.00;;;;;21.27;51.30;101474.78;5019421;28;45499;-54
2021/10/19 02:16:40;;;;;;;;;9.75;9.00;;;;;21.25;51.64;101471.38;5019435;28;45440;-55
2021/10/19 02:19:05;;;;;;;;;9.50;9.00;;;;;21.26;51.61;101467.81;5019689;28;45457;-56
2021/10/19 02:21:31;;;;;;;;;11.00;9.75;;;;;21.26;51.73;101473.09;5019645;28;45445;-55
2021/10/19 02:23:56;;;;;;;;;8.25;8.25;;;;;21.27;51.63;101466.06;5019322;28;46402;-55
2021/10/19 02:26:22;;;;;;;;;8.50;8.50;;;;;21.27;51.88;101464.25;5019430;28;45233;-55
2021/10/19 02:28:47;;;;;;;;;9.25;9.25;;;;;21.26;51.23;101467.81;5019364;28;45284;-55
2021/10/19 02:31:12;;;;;;;;;9.50;9.50;;;;;21.27;51.70;101458.13;5019589;28;45320;-54
2021/10/19 02:33:38;;;;;;;;;11.00;10.75;;;;;21.25;51.64;101463.47;5019028;28;46273;-55
2021/10/19 02:36:04;;;;;;;;;6.25;6.00;;;;;21.24;51.71;101463.56;5034881;28;45317;-55
2021/10/19 02:38:29;;;;;;;;;8.00;8.00;;;;;21.25;51.67;101466.09;5019119;28;45259;-55
2021/10/19 02:40:54;;;;;;;;;11.00;8.75;;;;;21.25;51.69;101466.09;5034583;28;45461;-55
2021/10/19 02:43:20;;;;;;;;;8.50;8.25;;;;;21.25;51.56;101467.91;5018949;28;45477;-55
2021/10/19 02:45:45;;;;;;;;;11.50;10.00;;;;;21.26;51.43;101467.81;5018914;28;45335;-56
2021/10/19 02:48:10;;;;;;;;;7.25;7.25;;;;;21.25;51.35;101463.47;5019064;28;45643;-56
2021/10/19 02:50:36;;;;;;;;;7.50;7.50;;;;;21.25;51.78;101460.84;5019451;28;45669;-56
2021/10/19 02:53:03;;;;;;;;;10.50;9.00;;;;;21.25;51.61;101447.66;5001045;28;47239;-55
2021/10/19 02:55:28;;;;;;;;;9.00;9.00;;;;;21.24;51.72;101459.13;5019002;28;45811;-56
2021/10/19 02:57:53;;;;;;;;;10.00;10.00;;;;;21.25;51.82;101454.72;5018885;28;45915;-56
2021/10/19 03:00:19;;;;;;;;;11.00;9.25;;;;;21.25;51.92;101465.25;5019019;28;45427;-56
2021/10/19 03:02:44;;;;;;;;;9.25;9.25;;;;;21.23;51.86;101460.03;5018530;28;46495;-56
2021/10/19 03:05:10;;;;;;;;;8.00;8.00;;;;;21.25;51.60;101463.47;5018254;28;45457;-56
2021/10/19 03:07:35;;;;;;;;;9.25;9.25;;;;;21.24;51.27;101463.56;5019028;28;45436;-56
2021/10/19 03:10:01;;;;;;;;;8.00;8.00;;;;;21.24;51.74;101467.03;5018847;28;45610;-56
2021/10/19 03:12:26;;;;;;;;;8.00;8.00;;;;;21.24;51.47;101464.38;5018478;28;46322;-56
2021/10/19 03:14:51;;;;;;;;;8.75;8.75;;;;;21.25;51.78;101470.53;5018527;28;45310;-56
2021/10/19 03:17:17;;;;;;;;;11.00;9.00;;;;;21.24;51.98;101469.66;5018378;28;45313;-55
2021/10/19 03:19:42;;;;;;;;;9.00;8.25;;;;;21.24;51.57;101474.94;5018718;28;45662;-56
2021/10/19 03:22:08;;;;;;;;;10.25;9.00;;;;;21.24;51.79;101466.19;5018660;28;46255;-56
2021/10/19 03:24:33;;;;;;;;;6.75;6.75;;;;;21.24;51.77;101474.94;5018341;28;45272;-56
2021/10/19 03:26:58;;;;;;;;;9.25;9.25;;;;;21.24;51.84;101474.94;5018516;28;45365;-56
2021/10/19 03:29:25;;;;;;;;;10.50;9.50;;;;;21.24;51.79;101469.66;5018693;28;45263;-56
2021/10/19 03:31:51;;;;;;;;;11.00;9.00;;;;;21.25;52.07;101479.28;5018154;28;47275;-56
2021/10/19 03:34:16;;;;;;;;;8.00;8.00;;;;;21.23;51.69;101477.66;5000272;28;45486;-55
2021/10/19 03:36:41;;;;;;;;;8.50;8.25;;;;;21.24;52.07;101472.31;5018346;28;45325;-56
2021/10/19 03:39:07;;;;;;;;;7.25;7.25;;;;;21.22;51.64;101466.25;5018667;28;45602;-56
2021/10/19 03:41:32;;;;;;;;;9.75;9.75;;;;;21.23;51.61;101473.22;5018137;28;46157;-56
2021/10/19 03:43:58;;;;;;;;;8.00;8.00;;;;;21.22;52.09;101476.78;5018096;28;45412;-55
2021/10/19 03:46:23;;;;;;;;;12.75;10.25;;;;;21.23;52.12;101478.50;5018272;28;45587;-56
2021/10/19 03:48:48;;;;;;;;;9.75;9.00;;;;;21.24;51.70;101476.72;5018196;28;45325;-55
2021/10/19 03:51:14;;;;;;;;;9.00;9.00;;;;;21.24;51.85;101479.38;5033370;28;48263;-56
2021/10/19 03:53:41;;;;;;;;;8.25;8.25;;;;;21.23;51.95;101483.78;5018184;28;45471;-56
2021/10/19 03:56:06;;;;;;;;;8.25;7.00;;;;;21.24;51.47;101490.75;5018043;28;45249;-56
2021/10/19 03:58:32;;;;;;;;;8.75;7.50;;;;;21.23;51.51;101486.41;5018208;28;45453;-56
2021/10/19 04:00:57;;;;;;;;;9.75;9.75;;;;;21.23;51.62;101483.78;5017736;28;45252;-56
2021/10/19 04:03:23;;;;;;;;;9.00;8.00;;;;;21.22;51.53;101478.59;5017545;28;45258;-56
2021/10/19 04:05:48;;;;;;;;;11.00;10.00;;;;;21.23;52.26;101480.28;5017912;28;45179;-56
2021/10/19 04:08:13;;;;;;;;;10.75;9.25;;;;;21.22;51.69;101482.06;5018050;28;45511;-56
2021/10/19 04:10:39;;;;;;;;;9.25;9.25;;;;;21.21;51.57;101490.06;5017928;28;47086;-56
2021/10/19 04:13:04;;;;;;;;;8.50;8.25;;;;;21.21;52.08;101490.94;5017677;28;45230;-54
2021/10/19 04:15:30;;;;;;;;;9.25;9.25;;;;;21.23;52.13;101496.13;5017674;28;45283;-56
2021/10/19 04:17:55;;;;;;;;;9.75;9.50;;;;;21.23;52.15;101488.22;5016884;28;45523;-56
2021/10/19 04:20:21;;;;;;;;;7.25;7.25;;;;;21.23;51.77;101504.84;5017362;28;46149;-56
2021/10/19 04:22:46;;;;;;;;;10.25;7.25;;;;;21.21;51.73;101493.56;5017290;28;45524;-56
2021/10/19 04:25:11;;;;;;;;;8.00;8.00;;;;;21.23;51.69;101493.47;5017956;28;45395;-56
2021/10/19 04:27:37;;;;;;;;;8.00;7.25;;;;;21.21;52.21;101500.59;5017553;28;45338;-56
2021/10/19 04:30:04;;;;;;;;;9.75;8.75;;;;;21.22;51.63;101508.44;5017252;28;45707;-56
2021/10/19 04:32:29;;;;;;;;;9.00;9.00;;;;;21.22;52.04;101502.31;5017266;28;45916;-56
2021/10/19 04:34:54;;;;;;;;;8.00;8.00;;;;;21.21;52.05;101506.75;5017374;28;45401;-56
2021/10/19 04:37:19;;;;;;;;;8.50;7.75;;;;;21.21;51.77;101504.09;5017362;28;45540;-56
2021/10/19 04:39:45;;;;;;;;;9.00;9.00;;;;;21.22;52.00;101504.94;5017034;28;46387;-56
2021/10/19 04:42:10;;;;;;;;;7.00;7.00;;;;;21.22;51.87;101499.69;5017203;28;50896;-56
2021/10/19 04:44:35;;;;;;;;;11.50;9.50;;;;;21.21;52.11;101495.31;5017336;28;45324;-56
2021/10/19 04:47:01;;;;;;;;;8.00;8.00;;;;;21.21;52.17;101501.47;5017283;28;45289;-56
2021/10/19 04:49:26;;;;;;;;;10.00;8.00;;;;;21.21;51.90;101497.97;5032342;28;48207;-57
2021/10/19 04:51:51;;;;;;;;;11.50;9.50;;;;;21.21;51.71;101504.09;5017023;28;45361;-58
2021/10/19 04:54:17;;;;;;;;;8.00;8.00;;;;;21.21;52.12;101504.09;5017197;28;45223;-56
2021/10/19 04:56:42;;;;;;;;;8.75;8.25;;;;;21.20;52.06;101494.50;5017613;28;45623;-56
2021/10/19 04:59:07;;;;;;;;;7.50;7.50;;;;;21.21;52.03;101498.84;5016760;28;46307;-55
2021/10/19 05:01:33;;;;;;;;;12.00;9.00;;;;;21.21;52.28;101492.69;5016797;28;45217;-56
2021/10/19 05:03:58;;;;;;;;;9.00;7.25;;;;;21.22;51.99;101492.59;5016963;28;45487;-60
2021/10/19 05:06:25;;;;;;;;;8.00;8.00;;;;;21.22;51.87;101491.75;5017111;28;45473;-56
2021/10/19 05:08:50;;;;;;;;;9.25;8.00;;;;;21.20;51.97;101499.75;5016669;28;46291;-56
2021/10/19 05:11:15;;;;;;;;;10.00;10.00;;;;;21.20;51.81;101499.75;5016862;28;45748;-56
2021/10/19 05:13:41;;;;;;;;;10.50;10.50;;;;;21.21;52.28;101495.31;5017165;28;45318;-56
2021/10/19 05:16:06;;;;;;;;;9.50;7.75;;;;;21.19;52.20;101492.78;5016887;28;45602;-56
2021/10/19 05:18:32;;;;;;;;;8.25;8.25;;;;;21.21;52.18;101501.47;5016546;28;45392;-56
2021/10/19 05:20:58;;;;;;;;;10.00;9.00;;;;;21.20;52.14;101489.22;5016575;28;45316;-56
2021/10/19 05:23:24;;;;;;;;;7.50;7.50;;;;;21.20;52.21;101494.50;5016660;28;45347;-56
2021/10/19 05:25:50;;;;;;;;;6.75;6.75;;;;;21.21;51.93;101501.47;5016714;28;45910;-56
2021/10/19 05:28:15;;;;;;;;;9.00;8.00;;;;;21.20;52.14;101499.75;5016711;28;45423;-56
2021/10/19 05:30:41;;;;;;;;;7.00;7.00;;;;;21.18;51.80;101501.59;5016601;28;45361;-56
2021/10/19 05:33:07;;;;;;;;;10.25;8.50;;;;;21.20;51.86;101499.75;5016599;28;45295;-55
2021/10/19 05:35:33;;;;;;;;;9.75;8.25;;;;;21.20;51.99;101491.84;5016770;28;45235;-56
2021/10/19 05:37:59;;;;;;;;;11.25;10.75;;;;;21.21;51.83;101490.94;5016426;28;46162;-56
2021/10/19 05:40:25;;;;;;;;;9.25;9.25;;;;;21.20;52.31;101483.94;5016360;28;45369;-56
2021/10/19 05:42:50;;;;;;;;;8.25;8.25;;;;;21.20;52.12;101486.56;5016525;28;45244;-55
2021/10/19 05:45:17;;;;;;;;;14.00;11.00;;;;;21.22;52.65;101486.50;5016792;28;45552;-54
2021/10/19 05:47:45;;;;;;;;;9.50;9.50;;;;;21.22;52.44;101481.22;5016397;28;46575;-56
2021/10/19 05:50:13;;;;;;;;;11.00;10.00;;;;;21.21;52.32;101483.03;5016176;28;45520;-55
2021/10/19 05:52:39;;;;;;;;;10.75;9.50;;;;;21.20;52.69;101486.56;5016345;28;45267;-56
2021/10/19 05:55:04;;;;;;;;;7.00;7.00;;;;;21.21;52.52;101485.66;5016413;28;45527;-56
2021/10/19 05:57:30;;;;;;;;;9.00;9.00;;;;;21.21;52.74;101479.50;5015958;28;46430;-54
2021/10/19 05:59:55;;;;;;;;;9.00;9.00;;;;;21.22;52.80;101486.50;5016130;28;45278;-54
2021/10/19 06:02:20;;;;;;;;;8.75;8.75;;;;;21.18;53.09;101483.16;5016325;28;45207;-55
2021/10/19 06:04:46;;;;;;;;;9.25;9.25;;;;;21.19;52.76;101487.50;5016374;28;45456;-54
2021/10/19 06:07:11;;;;;;;;;9.00;9.00;;;;;21.19;52.84;101486.63;5016019;28;46343;-55
2021/10/19 06:09:36;;;;;;;;;11.75;9.50;;;;;21.18;52.70;101491.06;5015829;28;49582;-55
2021/10/19 06:12:02;;;;;;;;;12.00;10.25;;;;;21.17;52.95;101495.47;5016075;28;45441;-55
2021/10/19 06:14:27;;;;;;;;;10.50;10.50;;;;;21.17;52.94;101494.63;5016228;28;45571;-55
2021/10/19 06:16:53;;;;;;;;;10.00;9.50;;;;;21.17;52.84;101500.72;5015900;28;45508;-53
2021/10/19 06:19:20;;;;;;;;;9.25;9.25;;;;;21.16;53.05;101493.78;4997945;28;45719;-56
2021/10/19 06:21:46;;;;;;;;;10.75;9.50;;;;;21.14;52.89;101487.72;4998621;28;45334;-55
2021/10/19 06:24:12;;;;;;;;;12.00;10.50;;;;;21.16;52.77;101495.53;5016141;28;45162;-55
2021/10/19 06:26:37;;;;;;;;;9.25;8.00;;;;;21.16;52.69;101498.19;5031083;28;48246;-54
2021/10/19 06:29:08;;;;;;;;;10.50;8.75;;;;;21.15;52.80;101501.75;5015671;28;45357;-54
2021/10/19 06:31:34;;;;;;;;;10.00;10.00;;;;;21.14;52.84;101500.91;5016095;28;45786;-55
2021/10/19 06:34:00;;;;;;;;;12.50;10.75;;;;;21.13;53.29;101503.59;5016020;28;45484;-55
2021/10/19 06:36:26;;;;;;;;;10.50;9.50;;;;;21.14;53.25;101510.56;5015653;28;45333;-54
2021/10/19 06:38:52;;;;;;;;;10.75;10.75;;;;;21.13;53.01;101514.13;5015569;28;45437;-55
2021/10/19 06:41:17;;;;;;;;;11.25;9.50;;;;;21.12;53.04;101508.03;5018841;28;45388;-55
2021/10/19 06:43:43;;;;;;;;;10.50;10.50;;;;;21.14;52.87;101510.56;5019218;28;45483;-55
2021/10/19 06:46:08;;;;;;;;;12.00;10.50;;;;;21.13;53.37;101514.13;5018919;28;46651;-52
2021/10/19 06:48:34;;;;;;;;;13.75;11.00;;;;;21.12;53.24;101510.66;5019049;28;45235;-55
2021/10/19 06:50:59;;;;;;;;;14.25;13.25;;;;;21.12;53.51;101513.28;5019184;28;45298;-54
2021/10/19 06:53:25;;;;;;;;;13.00;11.00;;;;;21.11;53.50;101516.84;5019305;28;45265;-54
2021/10/19 06:55:50;;;;;;;;;11.25;10.00;;;;;21.11;53.21;101522.13;5018842;28;46503;-56
2021/10/19 06:58:16;;;;;;;;;10.00;9.00;;;;;21.11;53.06;101516.00;5019031;28;45231;-53
2021/10/19 07:00:41;;;;;;;;;10.25;9.75;;;;;21.10;53.02;101524.84;5001321;28;45409;-55
2021/10/19 07:03:07;;;;;;;;;11.00;10.50;;;;;21.11;53.35;101531.84;5001187;28;45318;-54
2021/10/19 07:05:32;;;;;;;;;10.75;10.75;;;;;21.11;53.52;101521.28;5018741;28;45344;-54
2021/10/19 07:07:58;;;;;;;;;9.50;9.50;;;;;21.11;53.47;101521.28;5034035;28;45414;-56
2021/10/19 07:10:23;;;;;;;;;10.00;9.75;;;;;21.12;53.48;101517.69;5017491;28;45321;-55
2021/10/19 07:12:48;;;;;;;;;12.00;11.00;;;;;21.16;53.74;101521.91;5019365;28;45488;-55
2021/10/19 07:15:15;;;;;;;;;11.75;10.25;;;;;21.15;53.19;101522.84;5018608;28;45654;-54
2021/10/19 07:17:41;;;;;;;;;10.25;10.25;;;;;21.13;53.59;101525.56;5018493;28;45273;-53
2021/10/19 07:20:09;;;;;;;;;13.75;12.50;;;;;21.17;53.35;101526.25;5018741;28;45341;-54
2021/10/19 07:22:36;;;;;;;;;10.50;10.00;;;;;21.17;53.62;101521.00;5000930;28;45597;-55
2021/10/19 07:25:03;;;;;;;;;9.25;9.25;;;;;21.19;53.26;101521.78;5018309;28;46761;-55
2021/10/19 07:27:29;;;;;;;;;14.75;11.75;;;;;21.17;53.15;101521.00;5018259;28;45934;-55
2021/10/19 07:29:54;;;;;;;;;12.50;11.00;;;;;21.19;53.33;101523.53;5018600;28;45343;-54
2021/10/19 07:32:20;;;;;;;;;14.25;11.75;;;;;21.18;53.18;101530.59;5018918;28;45492;-55
2021/10/19 07:34:45;;;;;;;;;11.75;10.25;;;;;21.17;53.37;101532.38;5018223;28;45318;-53
2021/10/19 07:37:10;;;;;;;;;10.00;10.00;;;;;21.17;53.31;101536.81;5018245;28;45293;-55
2021/10/19 07:39:36;;;;;;;;;12.25;11.50;;;;;21.16;53.53;101535.09;5000590;28;45495;-53
2021/10/19 07:42:01;;;;;;;;;8.75;8.75;;;;;21.17;53.50;101536.81;5018582;28;45604;-54
2021/10/19 07:44:26;;;;;;;;;11.00;11.00;;;;;21.16;53.78;101541.22;5018160;28;46184;-55
2021/10/19 07:46:52;;;;;;;;;10.75;10.75;;;;;21.16;53.35;101543.00;5018455;28;45245;-54
2021/10/19 07:49:21;;;;;;;;;10.00;10.00;;;;;21.15;53.30;101542.16;5018760;28;45308;-54
2021/10/19 07:51:47;;;;;;;;;13.75;10.50;;;;;21.15;53.33;101538.66;5017186;28;45361;-55
2021/10/19 07:54:12;;;;;;;;;11.75;10.25;;;;;21.15;53.47;101534.25;5018008;28;45524;-53
2021/10/19 07:56:38;;;;;;;;;12.75;12.50;;;;;21.15;53.54;101538.66;5017836;28;45394;-54
2021/10/19 07:59:05;;;;;;;;;11.50;9.00;;;;;21.14;53.08;101529.03;5033250;28;45449;-53
2021/10/19 08:01:32;;;;;;;;;14.75;11.25;;;;;21.13;53.76;101527.31;5018331;28;45337;-53
2021/10/19 08:03:57;;;;;;;;;9.75;9.00;;;;;21.15;53.51;101533.38;5017591;28;45334;-54
2021/10/19 08:06:22;;;;;;;;;12.00;10.00;;;;;21.15;53.50;101531.63;5018213;28;45341;-53
2021/10/19 08:08:48;;;;;;;;;12.75;11.50;;;;;21.16;53.32;101540.38;5017980;28;45224;-55
2021/10/19 08:11:14;;;;;;;;;13.75;10.75;;;;;21.13;53.14;101535.22;5017801;28;45591;-53
2021/10/19 08:13:39;;;;;;;;;15.75;12.75;;;;;21.13;53.31;101545.78;5017672;28;46286;-53
2021/10/19 08:16:04;;;;;;;;;10.25;9.50;;;;;21.15;52.92;101555.34;5017833;28;45373;-54
2021/10/19 08:18:30;;;;;;;;;13.25;10.00;;;;;21.14;53.37;101544.84;4999688;28;45409;-54
2021/10/19 08:20:56;;;;;;;;;12.25;9.50;;;;;21.16;53.10;101550.91;5017918;28;45324;-54
2021/10/19 08:23:22;;;;;;;;;9.25;9.25;;;;;21.17;53.36;101560.53;5017678;28;45386;-54
2021/10/19 08:25:47;;;;;;;;;13.25;11.00;;;;;21.16;53.49;101558.81;5017523;28;45412;-56
2021/10/19 08:28:24;;;;;;;;;12.25;9.75;;;;;21.16;53.09;101564.09;5017693;28;45357;-54
2021/10/19 08:30:51;;;;;;;;;15.75;12.00;;;;;21.14;53.52;101564.16;5017774;28;45416;-55
2021/10/19 08:33:17;;;;;;;;;11.25;11.25;;;;;21.16;53.52;101577.25;5017342;28;46571;-55
2021/10/19 08:35:43;;;;;;;;;9.50;9.50;;;;;21.15;53.43;101572.91;5017311;28;45285;-54
2021/10/19 08:38:12;;;;;;;;;11.50;10.00;;;;;21.15;53.18;101575.56;5017364;28;45235;-54
2021/10/19 08:40:38;;;;;;;;;12.25;10.25;;;;;21.16;53.55;101580.78;5017471;28;45464;-54
2021/10/19 08:43:04;;;;;;;;;13.75;12.00;;;;;21.17;53.45;101581.63;5017074;28;46247;-54
2021/10/19 08:45:30;;;;;;;;;14.25;10.75;;;;;21.17;53.42;101579.81;5017320;28;45418;-53
2021/10/19 08:47:56;;;;;;;;;10.75;10.50;;;;;21.16;53.05;101579.91;5017586;28;45432;-54
2021/10/19 08:50:24;;;;;;;;;10.50;10.50;;;;;21.17;52.83;101576.34;4999902;28;45683;-52
2021/10/19 08:52:49;;;;;;;;;9.50;9.50;;;;;21.16;53.03;101577.25;5016964;28;47180;-54
2021/10/19 08:55:15;;;;;;;;;10.75;10.75;;;;;21.16;53.06;101577.25;5017079;28;45255;-53
2021/10/19 08:57:41;;;;;;;;;11.00;11.00;;;;;21.14;53.43;101577.34;5017164;28;45320;-54
2021/10/19 09:00:08;;;;;;;;;12.00;11.00;;;;;21.17;53.28;101571.06;5017330;28;45571;-55
2021/10/19 09:02:44;;;;;;;;;11.75;11.75;;;;;21.19;52.81;101566.59;5016566;28;45392;-55
2021/10/19 09:05:27;;;;;;;;;13.00;12.00;;;;;21.19;53.14;101571.84;5016936;28;45398;-55
2021/10/19 09:08:03;;;;;;;;;13.50;10.50;;;;;21.20;53.02;101563.03;5032562;28;45383;-55
2021/10/19 09:10:34;;;;;;;;;11.50;10.75;;;;;21.21;52.85;101564.75;5017121;28;45435;-56
2021/10/19 09:13:05;;;;;;;;;13.50;13.50;;;;;21.24;52.96;101569.84;4998990;28;48365;-56
2021/10/19 09:15:33;;;;;;;;;13.25;11.00;;;;;21.23;53.05;101562.88;5016787;28;45960;-56
2021/10/19 09:18:04;;;;;;;;;12.00;10.75;;;;;21.25;53.25;101557.53;5016669;28;45242;-55
2021/10/19 09:20:55;;;;;;;;;11.25;11.25;;;;;21.24;53.27;101561.94;4999447;28;45567;-53
2021/10/19 09:23:24;;;;;;;;;12.00;12.00;;;;;21.26;52.91;101565.38;5016495;28;46213;-53
2021/10/19 09:25:51;;;;;;;;;11.00;9.00;;;;;21.26;53.33;101549.53;5016598;28;45423;-55
2021/10/19 09:28:35;;;;;;;;;14.00;12.75;;;;;21.29;52.73;101569.63;5016756;28;45274;-55
2021/10/19 09:31:00;;;;;;;;;11.25;10.50;;;;;21.28;53.14;101560.88;5016644;28;45406;-56
2021/10/19 09:33:26;;;;;;;;;13.00;11.00;;;;;21.29;53.10;101564.34;5016671;28;46461;-56
2021/10/19 09:35:55;;;;;;;;;14.25;12.00;;;;;21.29;53.26;101562.59;5016401;28;45270;-55
2021/10/19 09:38:21;;;;;;;;;14.50;11.00;;;;;21.29;53.09;101562.59;5016454;28;45220;-56
2021/10/19 09:40:52;;;;;;;;;12.25;11.00;;;;;21.28;53.11;101555.59;5016690;28;45532;-56
2021/10/19 09:43:20;;;;;;;;;12.25;11.00;;;;;21.28;53.27;101555.59;5016225;28;45640;-56
2021/10/19 09:45:50;;;;;;;;;10.75;10.75;;;;;21.28;53.13;101554.72;5016334;28;45247;-56
2021/10/19 09:48:18;;;;;;;;;14.25;10.75;;;;;21.30;53.36;101572.22;5016234;28;45281;-56
2021/10/19 09:50:45;;;;;;;;;10.75;8.50;;;;;21.31;53.25;101567.78;5016564;28;45229;-56
2021/10/19 09:53:13;;;;;;;;;14.75;11.50;;;;;21.33;53.51;101562.44;5016089;28;45353;-56
2021/10/19 09:55:40;;;;;;;;;11.25;11.25;;;;;21.33;53.03;101565.94;5016228;28;45272;-56
2021/10/19 09:58:05;;;;;;;;;11.00;11.00;;;;;21.35;53.25;101577.28;4998645;28;45495;-56
2021/10/19 10:00:36;;;;;;;;;12.50;11.00;;;;;21.36;53.50;101575.47;4998703;28;45420;-56
2021/10/19 10:03:03;;;;;;;;;11.50;10.25;;;;;21.36;53.30;101575.47;5015891;28;46329;-55
2021/10/19 10:05:34;;;;;;;;;9.00;7.25;;;;;21.36;53.39;101578.09;5016038;28;45879;-56
2021/10/19 10:08:01;;;;;;;;;11.00;11.00;;;;;21.36;53.69;101572.84;5016187;28;45239;-56
2021/10/19 10:10:27;;;;;;;;;12.00;9.50;;;;;21.35;53.70;101560.56;5015243;28;45360;-56
2021/10/19 10:13:05;;;;;;;;;9.50;9.50;;;;;21.36;52.92;101563.16;5015832;28;47190;-55
2021/10/19 10:15:34;;;;;;;;;14.75;11.50;;;;;21.36;53.32;101554.38;5017497;28;45908;-56
2021/10/19 10:18:06;;;;;;;;;12.00;12.00;;;;;21.36;53.11;101557.00;5019597;28;45242;-55
2021/10/19 10:20:48;;;;;;;;;11.25;9.25;;;;;21.36;53.32;101557.00;5019722;28;45587;-56
2021/10/19 10:23:25;;;;;;;;;12.75;11.00;;;;;21.37;53.05;101556.09;5019387;28;46407;-55
2021/10/19 10:26:10;;;;;;;;;;;;;;;;;;;;;
2021/10/19 10:28:40;;;;;;;;;11.25;10.75;;;;;21.37;53.02;101556.97;5019193;28;68365;-55
2021/10/19 10:31:23;;;;;;;;;10.50;8.75;;;;;21.39;52.95;101562.16;5020192;28;45380;-56
2021/10/19 10:34:00;;;;;;;;;10.00;8.50;;;;;21.40;53.32;101553.31;5001581;28;48095;-55
2021/10/19 10:36:40;;;;;;;;;14.25;11.50;;;;;21.41;53.58;101555.03;5019424;28;45710;-54
2021/10/19 10:39:07;;;;;;;;;11.25;11.25;;;;;21.41;53.19;101547.13;5019302;28;45961;-55
2021/10/19 10:41:50;;;;;;;;;10.00;10.00;;;;;21.41;52.95;101545.31;5019543;28;45491;-56
2021/10/19 10:44:22;;;;;;;;;15.75;11.75;;;;;21.41;52.91;101540.03;5019194;28;46299;-55
2021/10/19 10:46:48;;;;;;;;;13.50;12.00;;;;;21.43;53.11;101529.44;5018497;28;45833;-56
2021/10/19 10:49:13;;;;;;;;;14.25;13.50;;;;;21.46;52.63;101545.09;5019180;28;45464;-55
2021/10/19 10:51:42;;;;;;;;;10.75;9.75;;;;;21.45;53.20;101530.19;5019314;28;45325;-56
2021/10/19 10:58:15;;;;;;;;;14.00;12.75;;;;;21.47;52.49;101523.06;4927959;28;45751;-54
2021/10/19 11:00:43;;;;;;;;;11.50;11.00;;;;;21.47;52.60;101517.78;5001484;28;45293;-56
2021/10/19 11:03:25;;;;;;;;;13.00;12.00;;;;;21.48;52.86;101522.16;5019247;28;45379;-56
2021/10/19 11:05:51;;;;;;;;;12.50;10.25;;;;;21.49;52.57;101512.47;4999995;28;46721;-55
2021/10/19 11:08:24;;;;;;;;;14.33;12.33;;;;;21.49;52.66;101510.66;5018840;28;45171;-55
2021/10/19 11:11:10;;;;;;;;;13.00;12.25;;;;;21.51;52.74;101513.22;5018960;28;45503;-56
2021/10/19 11:13:52;;;;;;;;;15.50;12.75;;;;;21.50;52.44;101504.47;5019183;28;45228;-56
2021/10/19 11:16:28;;;;;;;;;12.25;12.25;;;;;21.50;52.12;101508.91;5000928;28;46985;-55
2021/10/19 11:18:53;;;;;;;;;13.00;13.00;;;;;21.51;52.38;101503.53;5018342;28;45845;-56